Meteo Giornale » Osservazioni meteo Sud Africa » Upington
ore: 20:00 - Osservazioni Meteo Upington
Lat. 28° 24' S Lon. 21° 16' E Alt. 839 metri s.l.m.
20 °C
Sereno
Temp. 24 Ore
12 °C
27 °C
Nord
5.5 Km/h
Dew point 8 °C
Umidità 45 %
Visibilità 10 Km
Il sole sorge alle ore 06:49
Il sole tramonta alle ore 18:20
| Data e Ora | Cielo e Fenomeni | T °C | DP °C | Um. % | Pres. hPa | Vis. km | Vento km/h | |
|---|---|---|---|---|---|---|---|---|
| Oggi h: 20:00 | Sereno | 20 | 8 | 45 | 1021 | 10 | N 5.5 | |
| Oggi h: 19:00 | Sereno | 22 | 7 | 37 | 1020 | 10 | N 0 | |
| Oggi h: 18:00 | Sereno | 23 | 8 | 38 | 1020 | 10 | N 0 | |
| Oggi h: 17:00 | Sereno | 25 | 8 | 33 | 1020 | 10 | N 1.8 | |
| Oggi h: 16:00 | Sereno | 27 | 7 | 28 | 1020 | 10 | N 3.7 | |
| Oggi h: 15:00 | Sereno | 26 | 7 | 29 | 1020 | 10 | O/NO 9.3 | |
| Oggi h: 14:00 | Sereno | 25 | 9 | 36 | 1021 | 10 | N 3.7 | |
| Oggi h: 13:00 | Sereno | 24 | 8 | 35 | 1021 | 10 | N 3.7 | |
| Oggi h: 12:20 | Sereno | 23 | 8 | 38 | 1021 | 10 | N 3.7 | |
| Oggi h: 12:00 | Sereno | 20 | 8 | 45 | 1022 | 10 | N 1.8 | |
| Oggi h: 11:00 | Nuvoloso | 17 | 8 | 55 | 1022 | 10 | N 3.7 | |
| Oggi h: 10:00 | Sereno | 15 | 7 | 58 | 1022 | 0 | S/SE 7.4 | |
| Oggi h: 09:00 | Nuvoloso | 14 | 7 | 62 | 1022 | 10 | N 1.8 | |
| Oggi h: 08:00 | Nuvoloso | 12 | 9 | 81 | 1022 | 10 | N 3.7 | |
| Oggi h: 07:00 | Poco Nuvoloso | 12 | 8 | 76 | 1022 | 10 | NO 11.1 | |
| Oggi h: 06:00 | Temporale | 12 | 9 | 81 | 1020 | 10 | SO 9.3 | |
| Oggi h: 05:00 | Temporale | 14 | 7 | 62 | 1019 | 10 | E/SE 13 | |
| Oggi h: 04:00 | Temporale | 14 | 7 | 62 | 1020 | 10 | N 5.5 | |
| Oggi h: 03:00 | Temporale | 14 | 7 | 62 | 1020 | 10 | S/SO 9.3 | |
| Oggi h: 02:00 | Temporale | 14 | 5 | 54 | 1021 | 10 | S/SO 9.3 | |
| Oggi h: 01:00 | Sereno | 13 | 6 | 62 | 1020 | 0 | S/SO 9.3 | |
| Oggi h: 00:00 | Sereno | 13 | 6 | 62 | 1020 | 0 | O 7.4 | |
| Ieri h: 23:00 | Sereno | 13 | 6 | 62 | 1020 | 0 | O 7.4 | |
| Ieri h: 22:00 | Sereno | 14 | 7 | 62 | 1020 | 0 | N 5.5 | |
| Ieri h: 21:00 | Sereno | 15 | 7 | 58 | 1020 | 0 | N 5.5 | |



